createdAt,value
2018-08-13T00:00:46.495Z,81.91
2018-08-13T00:01:46.499Z,81.62
2018-08-13T00:02:46.502Z,82.20
2018-08-13T00:03:46.504Z,82.10
2018-08-13T00:04:46.507Z,82.29
2018-08-13T00:05:46.510Z,81.87
2018-08-13T00:06:46.514Z,81.87
2018-08-13T00:07:46.517Z,82.54
2018-08-13T00:08:46.519Z,83.22
2018-08-13T00:09:46.523Z,82.64
2018-08-13T00:10:46.525Z,83.31
2018-08-13T00:11:46.529Z,82.54
2018-08-13T00:12:46.531Z,82.74
2018-08-13T00:13:46.534Z,83.61
2018-08-13T00:14:46.537Z,82.74
2018-08-13T00:15:46.541Z,82.26
2018-08-13T00:16:46.543Z,82.54
2018-08-13T00:17:46.546Z,82.74
2018-08-13T00:18:46.549Z,82.06
2018-08-13T00:19:46.552Z,81.68
2018-08-13T00:20:46.554Z,82.97
2018-08-13T00:21:46.558Z,80.94
2018-08-13T00:22:46.560Z,80.37
2018-08-13T00:23:46.563Z,80.56
2018-08-13T00:24:46.568Z,80.37
2018-08-13T00:25:46.569Z,80.66
2018-08-13T00:26:46.573Z,80.14
2018-08-13T00:27:46.576Z,80.23
2018-08-13T00:28:46.579Z,80.33
2018-08-13T00:29:46.581Z,81.39
2018-08-13T00:30:46.584Z,81.29
2018-08-13T00:31:46.587Z,81.87
2018-08-13T00:32:46.590Z,81.48
2018-08-13T00:33:46.593Z,81.20
2018-08-13T00:34:46.596Z,81.87
2018-08-13T00:35:46.599Z,80.91
2018-08-13T00:36:46.600Z,81.39
2018-08-13T00:37:46.604Z,80.14
2018-08-13T00:38:46.605Z,80.04
2018-08-13T00:39:46.610Z,80.04
2018-08-13T00:40:46.612Z,80.23
2018-08-13T00:41:46.618Z,80.14
2018-08-13T00:42:46.618Z,79.79
2018-08-13T00:43:46.621Z,78.92
2018-08-13T00:44:46.624Z,78.69
2018-08-13T00:45:46.628Z,78.69
2018-08-13T00:46:46.631Z,79.66
2018-08-13T00:47:46.633Z,79.46
2018-08-13T00:48:46.635Z,78.73
2018-08-13T00:49:46.638Z,78.88
2018-08-13T00:50:46.646Z,79.21
2018-08-13T00:51:46.644Z,79.27
2018-08-13T00:52:46.647Z,79.89
2018-08-13T00:53:46.649Z,79.66
2018-08-13T00:54:46.652Z,80.33
2018-08-13T00:55:46.657Z,80.85
2018-08-13T00:56:46.657Z,77.92
2018-08-13T00:57:46.660Z,79.66
2018-08-13T00:58:46.663Z,79.36
2018-08-13T00:59:46.666Z,78.88
2018-08-13T01:00:46.669Z,78.88
2018-08-13T01:01:46.672Z,79.27
2018-08-13T01:02:46.679Z,79.27
2018-08-13T01:03:46.677Z,79.27
2018-08-13T01:04:46.679Z,79.94
2018-08-13T01:05:46.682Z,80.14
2018-08-13T01:06:46.686Z,79.94
2018-08-13T01:07:46.688Z,79.27
2018-08-13T01:08:46.691Z,79.85
2018-08-13T01:09:46.694Z,79.75
2018-08-13T01:10:46.697Z,80.23
2018-08-13T01:11:46.700Z,80.23
2018-08-13T01:12:46.702Z,80.87
2018-08-13T01:13:46.705Z,80.10
2018-08-13T01:14:46.707Z,80.19
2018-08-13T01:15:46.711Z,80.43
2018-08-13T01:16:46.714Z,81.25
2018-08-13T01:17:46.716Z,80.58
2018-08-13T01:18:46.720Z,80.58
2018-08-13T01:19:46.722Z,80.23
2018-08-13T01:20:46.725Z,80.71
2018-08-13T01:21:46.728Z,79.94
2018-08-13T01:22:46.730Z,80.33
2018-08-13T01:23:46.734Z,80.33
2018-08-13T01:24:46.736Z,80.48
2018-08-13T01:25:46.739Z,81.10
2018-08-13T01:26:46.743Z,80.62
2018-08-13T01:27:46.745Z,80.43
2018-08-13T01:28:46.747Z,80.14
2018-08-13T01:29:46.749Z,80.33
2018-08-13T01:30:46.753Z,80.87
2018-08-13T01:31:46.755Z,81.16
2018-08-13T01:32:46.759Z,81.63
2018-08-13T01:33:46.760Z,81.63
2018-08-13T01:34:46.764Z,82.21
2018-08-13T01:35:46.767Z,81.63
2018-08-13T01:36:46.770Z,81.16
2018-08-13T01:37:46.775Z,81.45
2018-08-13T01:38:46.775Z,81.83
2018-08-13T01:39:46.778Z,82.31
2018-08-13T01:40:46.782Z,82.12
2018-08-13T01:41:46.784Z,82.89
2018-08-13T01:42:46.786Z,82.94
2018-08-13T01:43:46.790Z,82.89
2018-08-13T01:44:46.791Z,82.70
2018-08-13T01:45:46.794Z,83.18
2018-08-13T01:46:46.797Z,83.33
2018-08-13T01:47:46.800Z,82.94
2018-08-13T01:48:46.802Z,83.52
2018-08-13T01:49:46.807Z,83.08
2018-08-13T01:50:46.808Z,82.79
2018-08-13T01:51:46.811Z,82.60
2018-08-13T01:52:46.812Z,82.89
2018-08-13T01:53:46.816Z,83.08
2018-08-13T01:54:46.817Z,82.98
2018-08-13T01:55:46.821Z,83.23
2018-08-13T01:56:46.822Z,83.81
2018-08-13T01:57:46.825Z,83.91
2018-08-13T01:58:46.827Z,83.14
2018-08-13T01:59:46.831Z,83.42
2018-08-13T02:00:46.833Z,83.91
2018-08-13T02:01:46.853Z,83.75
2018-08-13T02:02:46.839Z,83.81
2018-08-13T02:03:46.842Z,82.75
2018-08-13T02:04:46.843Z,82.65
2018-08-13T02:05:46.846Z,82.46
2018-08-13T02:06:46.849Z,83.62
2018-08-13T02:07:46.851Z,83.81
2018-08-13T02:08:46.854Z,83.66
2018-08-13T02:09:46.856Z,83.72
2018-08-13T02:10:46.859Z,83.66
2018-08-13T02:11:46.862Z,83.52
2018-08-13T02:12:46.866Z,82.94
2018-08-13T02:13:46.866Z,83.04
2018-08-13T02:14:46.869Z,83.23
2018-08-13T02:15:46.872Z,83.81
2018-08-13T02:16:46.873Z,83.91
2018-08-13T02:17:46.876Z,83.72
2018-08-13T02:18:46.879Z,83.72
2018-08-13T02:19:46.881Z,83.81
2018-08-13T02:20:46.884Z,83.62
2018-08-13T02:21:46.887Z,83.72
2018-08-13T02:22:46.889Z,83.62
2018-08-13T02:23:46.892Z,83.52
2018-08-13T02:24:46.894Z,83.91
2018-08-13T02:25:46.897Z,83.33
2018-08-13T02:26:46.899Z,83.91
2018-08-13T02:27:46.903Z,83.52
2018-08-13T02:28:46.904Z,83.81
2018-08-13T02:29:46.907Z,83.42
2018-08-13T02:30:46.910Z,83.23
2018-08-13T02:31:46.912Z,82.94
2018-08-13T02:32:46.914Z,83.72
2018-08-13T02:33:46.917Z,83.23
2018-08-13T02:34:46.919Z,83.81
2018-08-13T02:35:46.923Z,83.72
2018-08-13T02:36:46.926Z,83.91
2018-08-13T02:37:46.926Z,84.00
2018-08-13T02:38:46.930Z,83.81
2018-08-13T02:39:46.933Z,83.62
2018-08-13T02:40:46.935Z,83.81
2018-08-13T02:41:46.936Z,83.52
2018-08-13T02:42:46.964Z,84.58
2018-08-13T02:43:46.943Z,83.81
2018-08-13T02:44:46.944Z,83.52
2018-08-13T02:45:46.946Z,84.48
2018-08-13T02:46:46.949Z,84.83
2018-08-13T02:47:46.953Z,84.34
2018-08-13T02:48:46.954Z,86.18
2018-08-13T02:49:46.956Z,85.50
2018-08-13T02:50:46.959Z,85.98
2018-08-13T02:51:46.962Z,86.56
2018-08-13T02:52:46.963Z,86.18
2018-08-13T02:53:46.968Z,86.65
2018-08-13T02:54:46.968Z,85.98
2018-08-13T02:55:46.971Z,85.60
2018-08-13T02:56:46.972Z,85.88
2018-08-13T02:57:46.975Z,86.56
2018-08-13T02:58:46.978Z,86.08
2018-08-13T02:59:46.980Z,85.78
2018-08-13T03:00:46.982Z,86.27
2018-08-13T03:01:46.985Z,86.27
2018-08-13T03:02:46.987Z,86.08
2018-08-13T03:03:46.993Z,85.98
2018-08-13T03:04:47.025Z,86.85
2018-08-13T03:05:46.996Z,86.08
2018-08-13T03:06:46.997Z,86.46
2018-08-13T03:07:46.999Z,86.65
2018-08-13T03:08:47.000Z,86.94
2018-08-13T03:09:47.003Z,87.52
2018-08-13T03:10:47.005Z,88.10
2018-08-13T03:11:47.009Z,86.75
2018-08-13T03:12:47.009Z,87.52
2018-08-13T03:13:47.013Z,87.62
2018-08-13T03:14:47.013Z,87.13
2018-08-13T03:15:47.017Z,87.23
2018-08-13T03:16:47.018Z,86.94
2018-08-13T03:17:47.020Z,87.33
2018-08-13T03:18:47.023Z,86.85
2018-08-13T03:19:47.025Z,87.04
2018-08-13T03:20:47.026Z,87.81
2018-08-13T03:21:47.027Z,88.00
2018-08-13T03:22:47.039Z,88.96
2018-08-13T03:23:47.033Z,87.96
2018-08-13T03:24:47.036Z,87.62
2018-08-13T03:25:47.038Z,88.29
2018-08-13T03:26:47.040Z,88.10
2018-08-13T03:27:47.041Z,88.57
2018-08-13T03:28:47.044Z,88.10
2018-08-13T03:29:47.053Z,88.63
2018-08-13T03:30:47.049Z,88.53
2018-08-13T03:31:47.051Z,88.44
2018-08-13T03:32:47.056Z,88.63
2018-08-13T03:33:47.055Z,88.15
2018-08-13T03:34:47.058Z,88.77
2018-08-13T03:35:47.058Z,87.48
2018-08-13T03:36:47.063Z,87.57
2018-08-13T03:37:47.063Z,87.48
2018-08-13T03:38:47.067Z,88.15
2018-08-13T03:39:47.068Z,87.90
2018-08-13T03:40:47.072Z,87.86
2018-08-13T03:41:47.072Z,87.48
2018-08-13T03:42:47.074Z,87.67
2018-08-13T03:43:47.077Z,87.52
2018-08-13T03:44:47.077Z,85.88
2018-08-13T03:45:47.081Z,86.56
2018-08-13T03:46:47.084Z,86.65
2018-08-13T03:47:47.086Z,86.46
2018-08-13T03:48:47.087Z,85.88
2018-08-13T03:49:47.090Z,86.27
2018-08-13T03:50:47.091Z,86.80
2018-08-13T03:51:47.093Z,86.46
2018-08-13T03:52:47.096Z,86.27
2018-08-13T03:53:47.131Z,86.08
2018-08-13T03:54:47.101Z,86.22
2018-08-13T03:55:47.103Z,87.62
2018-08-13T03:56:47.104Z,85.02
2018-08-13T03:57:47.111Z,84.73
2018-08-13T03:58:47.109Z,83.77
2018-08-13T03:59:47.111Z,83.86
2018-08-13T04:00:47.113Z,83.58
2018-08-13T04:01:47.115Z,83.48
2018-08-13T04:02:47.117Z,83.00
2018-08-13T04:03:47.119Z,83.09
2018-08-13T04:04:47.122Z,83.42
2018-08-13T04:05:47.124Z,83.81
2018-08-13T04:06:47.125Z,81.98
2018-08-13T04:07:47.128Z,81.60
2018-08-13T04:08:47.129Z,81.79
2018-08-13T04:09:47.133Z,82.27
2018-08-13T04:10:47.134Z,82.46
2018-08-13T04:11:47.141Z,82.46
2018-08-13T04:12:47.150Z,82.94
2018-08-13T04:13:47.161Z,83.04
2018-08-13T04:14:47.143Z,83.52
2018-08-13T04:15:47.148Z,83.33
2018-08-13T04:16:47.147Z,83.72
2018-08-13T04:17:47.150Z,83.77
2018-08-13T04:18:47.151Z,83.67
2018-08-13T04:19:47.154Z,83.96
2018-08-13T04:20:47.157Z,84.44
2018-08-13T04:21:47.158Z,84.25
2018-08-13T04:22:47.159Z,84.73
2018-08-13T04:23:47.162Z,84.92
2018-08-13T04:24:47.164Z,84.83
2018-08-13T04:25:47.166Z,85.40
2018-08-13T04:26:47.169Z,85.40
2018-08-13T04:27:47.171Z,85.78
2018-08-13T04:28:47.172Z,85.60
2018-08-13T04:29:47.175Z,85.31
2018-08-13T04:30:47.178Z,85.36
2018-08-13T04:31:47.180Z,85.69
2018-08-13T04:32:47.194Z,85.60
2018-08-13T04:33:47.183Z,85.94
2018-08-13T04:34:47.186Z,85.40
2018-08-13T04:35:47.189Z,85.11
2018-08-13T04:36:47.190Z,85.21
2018-08-13T04:37:47.192Z,84.16
2018-08-13T04:38:47.260Z,84.54
2018-08-13T04:39:47.197Z,83.67
2018-08-13T04:40:47.199Z,83.86
2018-08-13T04:41:47.200Z,84.16
2018-08-13T04:42:47.206Z,84.25
2018-08-13T04:43:47.205Z,83.81
2018-08-13T04:44:47.206Z,83.09
2018-08-13T04:45:47.209Z,83.77
2018-08-13T04:46:47.210Z,84.10
2018-08-13T04:47:47.215Z,82.56
2018-08-13T04:48:47.216Z,83.14
2018-08-13T04:49:47.217Z,82.27
2018-08-13T04:50:47.220Z,82.37
2018-08-13T04:51:47.222Z,83.14
2018-08-13T04:52:47.224Z,83.33
2018-08-13T04:53:47.227Z,82.37
2018-08-13T04:54:47.229Z,81.70
2018-08-13T04:55:47.230Z,81.79
2018-08-13T04:56:47.232Z,81.50
2018-08-13T04:57:47.235Z,82.08
2018-08-13T04:58:47.237Z,82.37
2018-08-13T04:59:47.239Z,82.75
2018-08-13T05:00:47.241Z,81.60
2018-08-13T05:01:47.243Z,81.79
2018-08-13T05:02:47.246Z,81.60
2018-08-13T05:03:47.248Z,81.21
2018-08-13T05:04:47.250Z,81.21
2018-08-13T05:05:47.253Z,81.21
2018-08-13T05:06:47.255Z,81.35
2018-08-13T05:07:47.268Z,82.27
2018-08-13T05:08:47.258Z,82.27
2018-08-13T05:09:47.262Z,82.94
2018-08-13T05:10:47.264Z,80.92
2018-08-13T05:11:47.267Z,80.54
2018-08-13T05:12:47.267Z,80.44
2018-08-13T05:13:47.270Z,80.44
2018-08-13T05:14:47.274Z,80.29
2018-08-13T05:15:47.276Z,79.81
2018-08-13T05:16:47.277Z,80.38
2018-08-13T05:17:47.281Z,79.90
2018-08-13T05:18:47.282Z,80.29
2018-08-13T05:19:47.284Z,79.23
2018-08-13T05:20:47.288Z,79.43
2018-08-13T05:21:47.290Z,79.43
2018-08-13T05:22:47.292Z,80.10
2018-08-13T05:23:47.294Z,79.81
2018-08-13T05:24:47.296Z,80.00
2018-08-13T05:25:47.300Z,79.90
2018-08-13T05:26:47.302Z,79.08
2018-08-13T05:27:47.304Z,79.52
2018-08-13T05:28:47.305Z,79.43
2018-08-13T05:29:47.310Z,79.66
2018-08-13T05:30:47.311Z,79.33
2018-08-13T05:31:47.314Z,79.85
2018-08-13T05:32:47.317Z,80.43
2018-08-13T05:33:47.318Z,79.94
2018-08-13T05:34:47.321Z,79.85
2018-08-13T05:35:47.328Z,79.85
2018-08-13T05:36:47.327Z,79.94
2018-08-13T05:37:47.329Z,79.98
2018-08-13T05:38:47.331Z,79.41
2018-08-13T05:39:47.335Z,77.58
2018-08-13T05:40:47.337Z,77.00
2018-08-13T05:41:47.338Z,77.76
2018-08-13T05:42:47.343Z,76.55
2018-08-13T05:43:47.345Z,76.07
2018-08-13T05:44:47.350Z,76.07
2018-08-13T05:45:47.350Z,76.75
2018-08-13T05:46:47.352Z,76.26
2018-08-13T05:47:47.357Z,76.36
2018-08-13T05:48:47.358Z,75.78
2018-08-13T05:49:47.364Z,76.55
2018-08-13T05:50:47.364Z,76.17
2018-08-13T05:51:47.368Z,76.55
2018-08-13T05:52:47.373Z,74.91
2018-08-13T05:53:47.373Z,75.36
2018-08-13T05:54:47.376Z,76.23
2018-08-13T05:55:47.381Z,76.36
2018-08-13T05:56:47.381Z,75.07
2018-08-13T05:57:47.383Z,75.78
2018-08-13T05:58:47.386Z,75.65
2018-08-13T05:59:47.391Z,75.78
2018-08-13T06:00:47.638Z,76.45
2018-08-13T06:01:47.517Z,74.91
2018-08-13T06:02:47.455Z,75.45
2018-08-13T06:03:47.402Z,76.55
2018-08-13T06:04:47.408Z,75.93
2018-08-13T06:05:47.408Z,75.78
2018-08-13T06:06:47.494Z,75.68
2018-08-13T06:07:47.479Z,74.62
2018-08-13T06:08:47.488Z,74.14
2018-08-13T06:09:47.419Z,74.24
2018-08-13T06:10:47.422Z,74.08
2018-08-13T06:11:47.426Z,73.60
2018-08-13T06:12:47.429Z,74.18
2018-08-13T06:13:47.431Z,73.89
2018-08-13T06:14:47.435Z,73.60
2018-08-13T06:15:47.438Z,74.95
2018-08-13T06:16:47.440Z,73.41
2018-08-13T06:17:47.445Z,73.31
2018-08-13T06:18:47.447Z,73.21
2018-08-13T06:19:47.452Z,73.31
2018-08-13T06:20:47.453Z,73.41
2018-08-13T06:21:47.460Z,73.31
2018-08-13T06:22:47.460Z,73.11
2018-08-13T06:23:47.463Z,73.99
2018-08-13T06:24:47.466Z,74.02
2018-08-13T06:25:47.469Z,73.06
2018-08-13T06:26:47.473Z,72.58
2018-08-13T06:27:47.483Z,72.58
2018-08-13T06:28:47.483Z,72.28
2018-08-13T06:29:47.483Z,72.67
2018-08-13T06:30:47.487Z,73.44
2018-08-13T06:31:47.490Z,74.21
2018-08-13T06:32:47.493Z,73.35
2018-08-13T06:33:47.499Z,72.03
2018-08-13T06:34:47.501Z,71.36
2018-08-13T06:35:47.505Z,71.06
2018-08-13T06:36:47.520Z,70.29
2018-08-13T06:37:47.511Z,70.78
2018-08-13T06:38:47.517Z,70.10
2018-08-13T06:39:47.519Z,71.06
2018-08-13T06:40:47.539Z,70.78
2018-08-13T06:41:47.524Z,69.26
2018-08-13T06:42:47.528Z,69.84
2018-08-13T06:43:48.416Z,69.32
2018-08-13T06:44:47.539Z,70.48
2018-08-13T06:45:47.539Z,70.68
2018-08-13T06:46:47.544Z,70.29
2018-08-13T06:47:47.547Z,70.20
2018-08-13T06:48:47.551Z,70.68
2018-08-13T06:49:47.835Z,70.52
2018-08-13T06:50:47.756Z,68.98
2018-08-13T06:51:47.568Z,68.88
2018-08-13T06:52:47.566Z,69.07
2018-08-13T06:53:47.628Z,68.98
2018-08-13T06:54:47.574Z,68.78
2018-08-13T06:55:47.578Z,68.68
2018-08-13T06:56:47.897Z,68.98
2018-08-13T06:57:47.585Z,69.74
2018-08-13T06:58:47.589Z,69.88
2018-08-13T06:59:47.595Z,70.17
2018-08-13T07:00:47.656Z,68.56
2018-08-13T07:01:47.602Z,65.30
2018-08-13T07:02:47.610Z,63.62
2018-08-13T07:03:47.613Z,62.30
2018-08-13T07:04:47.620Z,61.26
2018-08-13T07:05:47.626Z,60.71
2018-08-13T07:06:47.679Z,59.67
2018-08-13T07:07:47.638Z,57.37
2018-08-13T07:08:47.645Z,57.11
2018-08-13T07:09:47.654Z,56.39
2018-08-13T07:10:47.661Z,53.01
2018-08-13T07:11:47.669Z,52.48
2018-08-13T07:12:47.678Z,50.65
2018-08-13T07:13:47.684Z,50.36
2018-08-13T07:14:47.694Z,50.16
2018-08-13T07:15:47.744Z,50.07
2018-08-13T07:16:47.710Z,50.53
2018-08-13T07:17:47.720Z,51.39
2018-08-13T07:18:47.726Z,51.75
2018-08-13T07:19:47.734Z,52.82
2018-08-13T07:20:47.749Z,53.69
2018-08-13T07:21:47.751Z,52.98
2018-08-13T07:22:47.758Z,54.15
2018-08-13T07:23:47.766Z,53.86
2018-08-13T07:24:47.772Z,54.93
2018-08-13T07:25:47.779Z,54.54
2018-08-13T07:26:47.787Z,55.22
2018-08-13T07:27:47.818Z,55.03
2018-08-13T07:28:47.801Z,55.19
2018-08-13T07:29:47.812Z,55.58
2018-08-13T07:30:47.816Z,55.88
2018-08-13T07:31:47.867Z,56.16
2018-08-13T07:32:47.831Z,56.36
2018-08-13T07:33:47.893Z,56.85
2018-08-13T07:34:47.845Z,57.43
2018-08-13T07:35:47.851Z,58.50
2018-08-13T07:36:47.860Z,56.26
2018-08-13T07:37:47.865Z,56.04
2018-08-13T07:38:47.871Z,56.56
2018-08-13T07:39:47.879Z,56.14
2018-08-13T07:40:47.885Z,55.65
2018-08-13T07:41:47.891Z,56.24
2018-08-13T07:42:47.900Z,57.69
2018-08-13T07:43:47.912Z,56.34
2018-08-13T07:44:47.911Z,57.01
2018-08-13T07:45:47.918Z,58.76
2018-08-13T07:46:47.925Z,58.28
2018-08-13T07:47:47.930Z,57.18
2018-08-13T07:48:47.945Z,56.89
2018-08-13T07:49:47.953Z,57.47
2018-08-13T07:50:47.950Z,57.67
2018-08-13T07:51:48.102Z,57.57
2018-08-13T07:52:48.015Z,58.25
2018-08-13T07:53:47.998Z,58.73
2018-08-13T07:54:47.976Z,55.85
2018-08-13T07:55:47.985Z,56.56
2018-08-13T07:56:47.990Z,57.72
2018-08-13T07:57:47.997Z,56.07
2018-08-13T07:58:48.004Z,55.19
2018-08-13T07:59:48.011Z,56.56
2018-08-13T08:00:48.019Z,55.58
2018-08-13T08:01:48.025Z,54.80
2018-08-13T08:02:48.032Z,54.42
2018-08-13T08:03:48.041Z,55.39
2018-08-13T08:04:48.046Z,57.43
2018-08-13T08:05:48.055Z,56.65
2018-08-13T08:06:48.062Z,56.49
2018-08-13T08:07:48.070Z,55.61
2018-08-13T08:08:48.081Z,55.78
2018-08-13T08:09:48.084Z,55.78
2018-08-13T08:10:48.092Z,55.98
2018-08-13T08:11:48.104Z,54.52
2018-08-13T08:12:48.158Z,54.74
2018-08-13T08:13:48.115Z,53.08
2018-08-13T08:14:48.159Z,52.14
2018-08-13T08:15:48.132Z,51.17
2018-08-13T08:16:48.138Z,50.53
2018-08-13T08:17:48.147Z,48.83
2018-08-13T08:18:48.158Z,47.51
2018-08-13T08:19:48.165Z,46.48
2018-08-13T08:20:48.174Z,46.85
2018-08-13T08:21:48.208Z,47.97
2018-08-13T08:22:48.425Z,48.02
2018-08-13T08:23:48.448Z,49.49
2018-08-13T08:24:48.213Z,47.71
2018-08-13T08:25:48.220Z,49.24
2018-08-13T08:26:48.230Z,49.15
2018-08-13T08:27:48.239Z,50.12
2018-08-13T08:28:48.247Z,50.14
2018-08-13T08:29:48.257Z,50.38
2018-08-13T08:30:48.265Z,49.32
2018-08-13T08:31:48.274Z,49.41
2018-08-13T08:32:48.282Z,47.58
2018-08-13T08:33:48.293Z,47.00
2018-08-13T08:34:48.357Z,46.83
2018-08-13T08:35:48.312Z,45.97
2018-08-13T08:36:48.321Z,46.07
2018-08-13T08:37:48.331Z,46.60
2018-08-13T08:38:48.342Z,44.77
2018-08-13T08:39:48.353Z,41.88
2018-08-13T08:40:48.376Z,41.13
2018-08-13T08:41:48.376Z,40.08
2018-08-13T08:42:48.386Z,39.70
2018-08-13T08:43:48.399Z,40.48
2018-08-13T08:44:48.559Z,41.49
2018-08-13T08:45:48.466Z,42.05
2018-08-13T08:46:48.439Z,42.18
2018-08-13T08:47:48.450Z,43.13
2018-08-13T08:48:48.465Z,43.31
2018-08-13T08:49:48.476Z,42.52
2018-08-13T08:50:48.490Z,43.60
2018-08-13T08:51:48.503Z,43.58
2018-08-13T08:52:48.521Z,43.56
2018-08-13T08:53:48.528Z,43.46
2018-08-13T08:54:48.927Z,44.69
2018-08-13T08:55:48.555Z,44.84
2018-08-13T08:56:48.571Z,45.51
2018-08-13T08:57:48.579Z,45.17
2018-08-13T08:58:48.593Z,43.51
2018-08-13T08:59:48.605Z,43.61
2018-08-13T09:00:48.665Z,45.44
2018-08-13T09:01:48.630Z,43.41
2018-08-13T09:02:48.641Z,43.90
2018-08-13T09:03:48.653Z,45.36
2018-08-13T09:04:48.971Z,44.51
2018-08-13T09:05:48.736Z,43.65
2018-08-13T09:06:48.690Z,43.36
2018-08-13T09:07:48.703Z,44.82
2018-08-13T09:08:48.715Z,44.34
2018-08-13T09:09:48.726Z,42.30
2018-08-13T09:10:48.740Z,42.22
2018-08-13T09:11:48.752Z,40.80
2018-08-13T09:12:48.763Z,40.50
2018-08-13T09:13:48.777Z,39.64
2018-08-13T09:14:48.791Z,39.15
2018-08-13T09:15:48.807Z,37.90
2018-08-13T09:16:48.819Z,39.29
2018-08-13T09:17:48.829Z,37.82
2018-08-13T09:18:48.849Z,37.52
2018-08-13T09:19:48.857Z,37.13
2018-08-13T09:20:48.870Z,37.63
2018-08-13T09:21:48.933Z,38.12
2018-08-13T09:22:48.985Z,37.63
2018-08-13T09:23:48.913Z,38.31
2018-08-13T09:24:48.926Z,37.45
2018-08-13T09:25:48.940Z,37.45
2018-08-13T09:26:48.981Z,37.45
2018-08-13T09:27:48.971Z,36.57
2018-08-13T09:28:48.985Z,36.18
2018-08-13T09:29:48.997Z,36.19
2018-08-13T09:30:49.012Z,35.21
2018-08-13T09:31:49.027Z,35.89
2018-08-13T09:32:49.040Z,35.31
2018-08-13T09:33:49.058Z,35.97
2018-08-13T09:34:49.069Z,35.88
2018-08-13T09:35:49.086Z,37.54
2018-08-13T09:36:49.101Z,36.76
2018-08-13T09:37:49.114Z,37.41
2018-08-13T09:38:49.132Z,39.10
2018-08-13T09:39:49.148Z,39.02
2018-08-13T09:40:49.158Z,39.54
2018-08-13T09:41:49.172Z,38.47
2018-08-13T09:42:49.186Z,37.90
2018-08-13T09:43:49.203Z,37.61
2018-08-13T09:44:49.214Z,36.55
2018-08-13T09:45:49.229Z,36.65
2018-08-13T09:46:49.243Z,36.16
2018-08-13T09:47:49.475Z,35.96
2018-08-13T09:48:49.270Z,36.65
2018-08-13T09:49:49.287Z,36.55
2018-08-13T09:50:49.325Z,37.23
2018-08-13T09:51:49.317Z,37.13
2018-08-13T09:52:49.326Z,36.18
2018-08-13T09:53:49.379Z,36.18
2018-08-13T09:54:49.356Z,37.15
2018-08-13T09:55:49.370Z,36.58
2018-08-13T09:56:49.385Z,36.01
2018-08-13T09:57:49.398Z,35.99
2018-08-13T09:58:49.736Z,35.70
2018-08-13T09:59:49.526Z,35.21
2018-08-13T10:00:49.504Z,35.41
2018-08-13T10:01:49.517Z,33.74
2018-08-13T10:02:49.529Z,35.68
2018-08-13T10:03:49.725Z,35.49
2018-08-13T10:04:49.601Z,36.18
2018-08-13T10:05:49.513Z,37.94
2018-08-13T10:06:49.526Z,36.08
2018-08-13T10:07:49.568Z,35.88
2018-08-13T10:08:49.555Z,35.96
2018-08-13T10:09:49.569Z,36.25
2018-08-13T10:10:49.623Z,36.55
2018-08-13T10:11:49.596Z,35.58
2018-08-13T10:12:49.610Z,36.66
2018-08-13T10:13:49.643Z,36.47
2018-08-13T10:14:49.637Z,36.68
2018-08-13T10:15:49.653Z,36.49
2018-08-13T10:16:49.690Z,36.51
2018-08-13T10:17:49.690Z,35.42
2018-08-13T10:18:49.694Z,36.80
2018-08-13T10:19:49.710Z,35.72
2018-08-13T10:20:49.722Z,37.58
2018-08-13T10:21:49.860Z,35.82
2018-08-13T10:22:49.748Z,34.44
2018-08-13T10:23:49.779Z,34.16
2018-08-13T10:24:49.776Z,35.24
2018-08-13T10:25:49.790Z,35.23
2018-08-13T10:26:49.803Z,34.64
2018-08-13T10:27:50.103Z,35.13
2018-08-13T10:28:49.840Z,35.82
2018-08-13T10:29:49.873Z,35.23
2018-08-13T10:30:49.904Z,34.52
2018-08-13T10:31:49.872Z,34.13
2018-08-13T10:32:49.886Z,34.72
2018-08-13T10:33:49.901Z,33.84
2018-08-13T10:34:49.915Z,34.90
2018-08-13T10:35:49.929Z,35.39
2018-08-13T10:36:49.946Z,35.88
2018-08-13T10:37:49.957Z,37.84
2018-08-13T10:38:49.969Z,35.19
2018-08-13T10:39:49.984Z,35.88
2018-08-13T10:40:50.000Z,37.05
2018-08-13T10:41:50.009Z,37.05
2018-08-13T10:42:50.022Z,35.80
2018-08-13T10:43:50.036Z,35.97
2018-08-13T10:44:50.080Z,34.52
2018-08-13T10:45:50.064Z,34.05
2018-08-13T10:46:50.077Z,34.44
2018-08-13T10:47:50.089Z,35.82
2018-08-13T10:48:50.102Z,35.82
2018-08-13T10:49:50.115Z,36.40
2018-08-13T10:50:50.128Z,36.11
2018-08-13T10:51:50.151Z,36.52
2018-08-13T10:52:50.154Z,36.30
2018-08-13T10:53:50.169Z,37.19
2018-08-13T10:54:50.182Z,36.51
2018-08-13T10:55:50.195Z,35.42
2018-08-13T10:56:50.207Z,35.23
2018-08-13T10:57:50.223Z,36.68
2018-08-13T10:58:50.241Z,35.41
2018-08-13T10:59:50.475Z,34.72
2018-08-13T11:00:50.262Z,35.31
2018-08-13T11:01:50.302Z,35.70
2018-08-13T11:02:50.292Z,35.41
2018-08-13T11:03:50.302Z,35.80
2018-08-13T11:04:50.315Z,36.09
2018-08-13T11:05:50.328Z,35.33
2018-08-13T11:06:50.341Z,36.60
2018-08-13T11:07:50.461Z,34.74
2018-08-13T11:08:50.370Z,36.11
2018-08-13T11:09:50.413Z,35.72
2018-08-13T11:10:50.394Z,36.37
2018-08-13T11:11:50.409Z,36.37
2018-08-13T11:12:50.447Z,37.33
2018-08-13T11:13:50.435Z,36.74
2018-08-13T11:14:50.451Z,36.63
2018-08-13T11:15:50.460Z,39.39
2018-08-13T11:16:50.473Z,39.90
2018-08-13T11:17:50.487Z,38.43
2018-08-13T11:18:50.501Z,38.53
2018-08-13T11:19:50.513Z,38.62
2018-08-13T11:20:50.528Z,37.84
2018-08-13T11:21:50.655Z,37.45
2018-08-13T11:22:50.556Z,38.12
2018-08-13T11:23:50.568Z,39.47
2018-08-13T11:24:50.578Z,38.70
2018-08-13T11:25:50.595Z,35.88
2018-08-13T11:26:50.606Z,36.49
2018-08-13T11:27:50.618Z,38.84
2018-08-13T11:28:50.632Z,35.50
2018-08-13T11:29:50.646Z,35.62
2018-08-13T11:30:50.658Z,35.10
2018-08-13T11:31:50.675Z,37.54
2018-08-13T11:32:50.685Z,36.49
2018-08-13T11:33:50.704Z,38.25
2018-08-13T11:34:50.777Z,35.91
2018-08-13T11:35:50.726Z,37.78
2018-08-13T11:36:50.735Z,36.01
2018-08-13T11:37:50.751Z,36.39
2018-08-13T11:38:50.765Z,37.98
2018-08-13T11:39:50.776Z,39.33
2018-08-13T11:40:50.790Z,38.74
2018-08-13T11:41:50.802Z,40.31
2018-08-13T11:42:50.826Z,38.72
2018-08-13T11:43:50.829Z,39.31
2018-08-13T11:44:50.841Z,40.27
2018-08-13T11:45:50.859Z,39.86
2018-08-13T11:46:50.870Z,41.02
2018-08-13T11:47:50.882Z,42.31
2018-08-13T11:48:50.895Z,41.35
2018-08-13T11:49:50.907Z,40.47
2018-08-13T11:50:50.920Z,42.21
2018-08-13T11:51:50.933Z,42.29
2018-08-13T11:52:50.948Z,43.93
2018-08-13T11:53:50.965Z,42.13
2018-08-13T11:54:50.971Z,42.22
2018-08-13T11:55:50.985Z,42.52
2018-08-13T11:56:50.997Z,42.21
2018-08-13T11:57:51.011Z,41.93
2018-08-13T11:58:51.021Z,43.30
2018-08-13T11:59:51.033Z,43.42
2018-08-13T12:00:51.045Z,44.69
2018-08-13T12:01:51.057Z,45.01
2018-08-13T12:02:51.068Z,42.95
2018-08-13T12:03:51.081Z,43.01
2018-08-13T12:04:51.096Z,43.01
2018-08-13T12:05:51.104Z,44.45
2018-08-13T12:06:51.120Z,44.45
2018-08-13T12:07:51.128Z,42.68
2018-08-13T12:08:51.140Z,42.09
2018-08-13T12:09:51.151Z,43.85
2018-08-13T12:10:51.162Z,43.73
2018-08-13T12:11:51.175Z,44.41
2018-08-13T12:12:51.184Z,45.48
2018-08-13T12:13:51.194Z,46.04
2018-08-13T12:14:51.207Z,45.95
2018-08-13T12:15:51.216Z,46.14
2018-08-13T12:16:51.226Z,46.92
2018-08-13T12:17:51.237Z,45.85
2018-08-13T12:18:51.247Z,45.00
2018-08-13T12:19:51.258Z,44.60
2018-08-13T12:20:51.271Z,45.68
2018-08-13T12:21:51.279Z,44.58
2018-08-13T12:22:51.291Z,43.82
2018-08-13T12:23:51.300Z,45.17
2018-08-13T12:24:51.311Z,45.87
2018-08-13T12:25:51.322Z,45.00
2018-08-13T12:26:51.332Z,44.63
2018-08-13T12:27:51.344Z,44.82
2018-08-13T12:28:51.352Z,44.14
2018-08-13T12:29:51.363Z,45.41
2018-08-13T12:30:51.374Z,44.24
2018-08-13T12:31:51.385Z,43.65
2018-08-13T12:32:51.394Z,43.63
2018-08-13T12:33:51.404Z,43.33
2018-08-13T12:34:51.416Z,43.73
2018-08-13T12:35:51.431Z,43.33
2018-08-13T12:36:51.437Z,43.04
2018-08-13T12:37:51.448Z,43.92
2018-08-13T12:38:51.459Z,43.51
2018-08-13T12:39:51.470Z,43.63
2018-08-13T12:40:51.478Z,44.48
2018-08-13T12:41:51.492Z,44.68
2018-08-13T12:42:51.500Z,45.64
2018-08-13T12:43:51.510Z,46.49
2018-08-13T12:44:51.523Z,47.44
2018-08-13T12:45:51.530Z,47.83
2018-08-13T12:46:51.540Z,49.00
2018-08-13T12:47:51.550Z,49.97
2018-08-13T12:48:51.560Z,49.68
2018-08-13T12:49:51.569Z,48.97
2018-08-13T12:50:51.579Z,48.49
2018-08-13T12:51:51.591Z,48.78
2018-08-13T12:52:51.666Z,48.90